createdAt,value
2022-12-14T00:02:02.806Z,-4.55
2022-12-14T00:04:30.912Z,-4.60
2022-12-14T00:06:58.973Z,-4.63
2022-12-14T00:09:26.958Z,-4.64
2022-12-14T00:11:55.107Z,-4.67
2022-12-14T00:14:23.189Z,-4.73
2022-12-14T00:16:51.294Z,-4.75
2022-12-14T00:19:19.279Z,-4.77
2022-12-14T00:21:47.327Z,-4.79
2022-12-14T00:24:15.348Z,-4.87
2022-12-14T00:26:43.743Z,-4.98
2022-12-14T00:29:11.927Z,-5.10
2022-12-14T00:31:40.053Z,-5.22
2022-12-14T00:34:08.097Z,-5.33
2022-12-14T00:36:37.876Z,-5.41
2022-12-14T00:39:06.073Z,-5.42
2022-12-14T00:41:34.153Z,-5.44
2022-12-14T00:44:02.202Z,-5.45
2022-12-14T00:46:30.281Z,-5.45
2022-12-14T00:48:58.393Z,-5.47
2022-12-14T00:51:26.399Z,-5.53
2022-12-14T00:53:54.717Z,-5.56
2022-12-14T00:56:22.752Z,-5.63
2022-12-14T00:58:52.477Z,-5.71
2022-12-14T01:01:21.861Z,-5.77
2022-12-14T01:03:50.831Z,-5.78
2022-12-14T01:06:21.803Z,-5.76
2022-12-14T01:08:50.306Z,-5.74
2022-12-14T01:11:18.461Z,-5.73
2022-12-14T01:13:49.332Z,-5.71
2022-12-14T01:16:18.402Z,-5.71
2022-12-14T01:18:46.630Z,-5.73
2022-12-14T01:21:21.618Z,-5.77
2022-12-14T01:23:53.485Z,-5.83
2022-12-14T01:26:23.263Z,-5.87
2022-12-14T01:28:53.648Z,-5.94
2022-12-14T01:31:25.512Z,-6.05
2022-12-14T01:33:54.363Z,-6.16
2022-12-14T01:36:25.197Z,-6.24
2022-12-14T01:38:59.398Z,-6.30
2022-12-14T01:41:31.181Z,-6.21
2022-12-14T01:44:23.278Z,-6.12
2022-12-14T01:47:00.504Z,-6.06
2022-12-14T01:49:31.242Z,-6.02
2022-12-14T01:52:13.305Z,-5.95
2022-12-14T01:54:49.102Z,-6.00
2022-12-14T01:57:23.681Z,-6.03
2022-12-14T01:59:52.551Z,-6.03
2022-12-14T02:02:21.650Z,-6.04
2022-12-14T02:04:55.226Z,-6.06
2022-12-14T02:07:24.802Z,-6.09
2022-12-14T02:09:54.652Z,-6.18
2022-12-14T02:12:34.030Z,-6.27
2022-12-14T02:15:03.115Z,-6.35
2022-12-14T02:17:31.157Z,-6.41
2022-12-14T02:19:59.323Z,-6.50
2022-12-14T02:23:08.614Z,-6.59
2022-12-14T02:25:59.183Z,-6.63
2022-12-14T02:28:42.386Z,-6.65
2022-12-14T02:31:55.482Z,-6.71
2022-12-14T02:34:55.161Z,-6.70
2022-12-14T02:37:49.824Z,-6.61
2022-12-14T02:40:20.726Z,-6.62
2022-12-14T02:42:59.203Z,-6.73
2022-12-14T02:45:40.188Z,-6.79
2022-12-14T02:48:23.113Z,-6.86
2022-12-14T02:51:08.065Z,-6.91
2022-12-14T02:54:09.915Z,-6.96
2022-12-14T02:56:47.747Z,-6.99
2022-12-14T02:59:18.134Z,-7.11
2022-12-14T03:01:50.278Z,-7.19
2022-12-14T03:04:20.732Z,-7.21
2022-12-14T03:07:34.315Z,-7.26
2022-12-14T03:10:33.520Z,-7.40
2022-12-14T03:13:11.371Z,-7.49
2022-12-14T03:15:42.792Z,-7.49
2022-12-14T03:18:14.515Z,-7.51
2022-12-14T03:20:46.460Z,-7.52
2022-12-14T03:23:20.908Z,-7.50
2022-12-14T03:25:58.677Z,-7.41
2022-12-14T03:28:29.830Z,-7.36
2022-12-14T03:31:06.140Z,-7.35
2022-12-14T03:33:38.352Z,-7.40
2022-12-14T03:36:22.208Z,-7.49
2022-12-14T03:38:53.650Z,-7.53
2022-12-14T03:41:27.628Z,-7.51
2022-12-14T03:44:30.880Z,-7.52
2022-12-14T03:47:50.053Z,-7.59
2022-12-14T03:50:21.542Z,-7.70
2022-12-14T03:52:58.151Z,-7.76
2022-12-14T03:55:36.339Z,-7.73
2022-12-14T03:58:16.257Z,-7.69
2022-12-14T04:00:57.330Z,-7.68
2022-12-14T04:03:34.267Z,-7.71
2022-12-14T04:06:29.065Z,-7.72
2022-12-14T04:09:22.683Z,-7.71
2022-12-14T04:12:33.667Z,-7.70
2022-12-14T04:15:33.988Z,-7.71
2022-12-14T04:18:25.151Z,-7.70
2022-12-14T04:21:02.220Z,-7.71
2022-12-14T04:23:55.586Z,-7.75
2022-12-14T04:26:29.362Z,-7.77
2022-12-14T04:29:36.275Z,-7.79
2022-12-14T04:32:13.182Z,-7.80
2022-12-14T04:34:45.926Z,-7.73
2022-12-14T04:37:17.614Z,-7.69
2022-12-14T04:39:53.851Z,-7.67
2022-12-14T04:42:31.460Z,-7.64
2022-12-14T04:45:07.367Z,-7.65
2022-12-14T04:47:42.504Z,-7.65
2022-12-14T04:50:41.143Z,-7.65
2022-12-14T04:53:21.700Z,-7.70
2022-12-14T04:56:04.516Z,-7.73
2022-12-14T04:58:34.321Z,-7.78
2022-12-14T05:01:24.204Z,-7.78
2022-12-14T05:04:01.462Z,-7.83
2022-12-14T05:06:29.466Z,-7.87
2022-12-14T05:09:28.555Z,-7.92
2022-12-14T05:12:00.915Z,-7.98
2022-12-14T05:14:37.499Z,-7.90
2022-12-14T05:17:09.316Z,-7.84
2022-12-14T05:19:45.458Z,-7.78
2022-12-14T05:22:18.327Z,-7.75
2022-12-14T05:24:46.653Z,-7.76
2022-12-14T05:27:15.212Z,-7.75
2022-12-14T05:29:43.229Z,-7.77
2022-12-14T05:32:13.231Z,-7.79
2022-12-14T05:34:41.306Z,-7.80
2022-12-14T05:37:14.623Z,-7.83
2022-12-14T05:39:45.972Z,-7.87
2022-12-14T05:42:14.048Z,-7.90
2022-12-14T05:44:42.089Z,-7.94
2022-12-14T05:47:10.882Z,-7.94
2022-12-14T05:49:38.919Z,-7.97
2022-12-14T05:52:07.029Z,-7.95
2022-12-14T05:54:35.134Z,-7.90
2022-12-14T05:57:03.328Z,-7.90
2022-12-14T05:59:31.373Z,-7.90
2022-12-14T06:02:00.182Z,-7.87
2022-12-14T06:04:28.369Z,-7.86
2022-12-14T06:06:56.768Z,-7.80
2022-12-14T06:09:25.059Z,-7.79
2022-12-14T06:11:53.100Z,-7.85
2022-12-14T06:14:21.463Z,-7.90
2022-12-14T06:16:49.469Z,-7.94
2022-12-14T06:19:17.497Z,-8.00
2022-12-14T06:21:45.582Z,-8.06
2022-12-14T06:24:14.289Z,-8.10
2022-12-14T06:26:42.653Z,-8.12
2022-12-14T06:29:16.972Z,-8.09
2022-12-14T06:31:45.886Z,-7.99
2022-12-14T06:34:21.259Z,-7.94
2022-12-14T06:36:51.780Z,-7.87
2022-12-14T06:39:19.841Z,-7.77
2022-12-14T06:41:51.855Z,-7.65
2022-12-14T06:44:21.184Z,-7.54
2022-12-14T06:46:49.607Z,-7.45
2022-12-14T06:49:17.774Z,-7.38
2022-12-14T06:51:45.833Z,-7.34
2022-12-14T06:54:15.961Z,-7.30
2022-12-14T06:56:46.012Z,-7.27
2022-12-14T06:59:15.436Z,-7.26
2022-12-14T07:01:43.722Z,-7.23
2022-12-14T07:04:11.929Z,-7.23
2022-12-14T07:06:41.141Z,-7.25
2022-12-14T07:09:13.120Z,-7.24
2022-12-14T07:11:41.774Z,-7.23
2022-12-14T07:14:16.261Z,-7.11
2022-12-14T07:16:48.241Z,-7.02
2022-12-14T07:19:18.032Z,-6.95
2022-12-14T07:21:46.153Z,-6.88
2022-12-14T07:24:15.065Z,-6.81
2022-12-14T07:26:43.166Z,-6.73
2022-12-14T07:29:12.300Z,-6.65
2022-12-14T07:31:40.567Z,-6.58
2022-12-14T07:34:13.087Z,-6.53
2022-12-14T07:36:43.294Z,-6.49
2022-12-14T07:39:17.201Z,-6.45
2022-12-14T07:41:47.340Z,-6.42
2022-12-14T07:44:21.308Z,-6.43
2022-12-14T07:46:49.403Z,-6.41
2022-12-14T07:49:17.569Z,-6.41
2022-12-14T07:51:46.108Z,-6.41
2022-12-14T07:54:14.668Z,-6.41
2022-12-14T07:56:44.743Z,-6.41
2022-12-14T07:59:16.247Z,-6.40
2022-12-14T08:01:44.945Z,-6.39
2022-12-14T08:04:16.293Z,-6.37
2022-12-14T08:06:47.023Z,-6.35
2022-12-14T08:09:16.807Z,-6.32
2022-12-14T08:11:44.899Z,-6.21
2022-12-14T08:14:17.559Z,-6.13
2022-12-14T08:16:48.035Z,-6.03
2022-12-14T08:19:17.541Z,-5.95
2022-12-14T08:21:46.100Z,-5.85
2022-12-14T08:24:16.994Z,-5.76
2022-12-14T08:26:48.925Z,-5.68
2022-12-14T08:29:18.883Z,-5.63
2022-12-14T08:31:47.272Z,-5.61
2022-12-14T08:34:22.996Z,-5.59
2022-12-14T08:36:51.293Z,-5.58
2022-12-14T08:39:19.513Z,-5.57
2022-12-14T08:41:47.633Z,-5.56
2022-12-14T08:44:17.578Z,-5.54
2022-12-14T08:46:45.743Z,-5.50
2022-12-14T08:49:13.931Z,-5.47
2022-12-14T08:51:42.102Z,-5.44
2022-12-14T08:54:10.168Z,-5.40
2022-12-14T08:56:38.485Z,-5.36
2022-12-14T08:59:06.551Z,-5.32
2022-12-14T09:01:35.156Z,-5.27
2022-12-14T09:04:08.394Z,-5.24
2022-12-14T09:06:38.825Z,-5.22
2022-12-14T09:09:15.486Z,-5.20
2022-12-14T09:11:45.517Z,-5.19
2022-12-14T09:14:14.022Z,-5.16
2022-12-14T09:16:42.282Z,-5.15
2022-12-14T09:19:10.480Z,-5.15
2022-12-14T09:21:39.939Z,-5.14
2022-12-14T09:24:09.855Z,-5.14
2022-12-14T09:26:38.038Z,-5.14
2022-12-14T09:29:06.314Z,-5.11
2022-12-14T09:31:34.474Z,-5.07
2022-12-14T09:34:02.522Z,-5.05
2022-12-14T09:36:30.678Z,-5.03
2022-12-14T09:38:59.613Z,-5.01
2022-12-14T09:41:35.397Z,-5.00
2022-12-14T09:44:25.176Z,-4.97
2022-12-14T09:47:11.354Z,-4.88
2022-12-14T09:49:45.439Z,-4.78
2022-12-14T09:52:19.299Z,-4.73
2022-12-14T09:54:50.012Z,-4.72
2022-12-14T09:57:39.603Z,-4.71
2022-12-14T10:00:20.098Z,-4.64
2022-12-14T10:03:10.609Z,-4.53
2022-12-14T10:06:01.039Z,-4.37
2022-12-14T10:08:42.334Z,-4.20
2022-12-14T10:11:27.092Z,-4.19
2022-12-14T10:14:19.807Z,-4.13
2022-12-14T10:17:06.301Z,-4.01
2022-12-14T10:19:54.780Z,-3.91
2022-12-14T10:22:34.393Z,-3.82
2022-12-14T10:25:13.830Z,-3.73
2022-12-14T10:28:09.820Z,-3.68
2022-12-14T10:30:37.118Z,-3.64
2022-12-14T10:33:34.450Z,-3.60
2022-12-14T10:36:19.018Z,-3.54
2022-12-14T10:39:07.810Z,-3.55
2022-12-14T10:41:49.594Z,-3.57
2022-12-14T10:44:30.476Z,-3.59
2022-12-14T10:46:58.508Z,-3.58
2022-12-14T10:49:40.132Z,-3.55
2022-12-14T10:52:17.295Z,-3.54
2022-12-14T10:54:50.530Z,-3.51
2022-12-14T10:57:21.004Z,-3.48
2022-12-14T11:00:05.565Z,-3.42
2022-12-14T11:02:41.591Z,-3.34
2022-12-14T11:05:21.911Z,-3.34
2022-12-14T11:07:50.035Z,-3.29
2022-12-14T11:10:21.226Z,-3.20
2022-12-14T11:13:06.343Z,-3.15
2022-12-14T11:15:41.537Z,-3.09
2022-12-14T11:18:12.625Z,-3.04
2022-12-14T11:20:57.601Z,-2.98
2022-12-14T11:23:25.595Z,-2.97
2022-12-14T11:25:57.690Z,-2.98
2022-12-14T11:28:37.541Z,-2.97
2022-12-14T11:31:21.497Z,-2.94
2022-12-14T11:33:55.681Z,-2.94
2022-12-14T11:36:33.293Z,-2.94
2022-12-14T11:39:03.021Z,-2.92
2022-12-14T11:41:35.304Z,-2.91
2022-12-14T11:44:25.006Z,-2.87
2022-12-14T11:46:58.865Z,-2.86
2022-12-14T11:49:26.912Z,-2.82
2022-12-14T11:52:06.527Z,-2.73
2022-12-14T11:54:37.609Z,-2.67
2022-12-14T11:57:05.623Z,-2.63
2022-12-14T11:59:47.552Z,-2.60
2022-12-14T12:02:20.729Z,-2.57
2022-12-14T12:05:00.142Z,-2.57
2022-12-14T12:07:32.437Z,-2.50
2022-12-14T12:10:13.807Z,-2.46
2022-12-14T12:13:00.689Z,-2.42
2022-12-14T12:15:38.611Z,-2.38
2022-12-14T12:18:21.895Z,-2.34
2022-12-14T12:20:53.537Z,-2.34
2022-12-14T12:23:47.739Z,-2.34
2022-12-14T12:26:31.195Z,-2.32
2022-12-14T12:29:17.930Z,-2.32
2022-12-14T12:32:11.210Z,-2.30
2022-12-14T12:35:12.410Z,-2.27
2022-12-14T12:37:45.381Z,-2.25
2022-12-14T12:40:31.568Z,-2.20
2022-12-14T12:43:23.571Z,-2.06
2022-12-14T12:45:55.226Z,-2.01
2022-12-14T12:48:28.064Z,-2.01
2022-12-14T12:51:05.939Z,-1.99
2022-12-14T12:53:39.296Z,-1.99
2022-12-14T12:56:17.044Z,-2.00
2022-12-14T12:58:52.326Z,-2.00
2022-12-14T13:01:28.743Z,-2.01
2022-12-14T13:04:05.815Z,-2.03
2022-12-14T13:06:49.361Z,-2.05
2022-12-14T13:10:05.918Z,-2.07
2022-12-14T13:12:39.055Z,-2.07
2022-12-14T13:15:19.388Z,-2.06
2022-12-14T13:17:51.630Z,-2.05
2022-12-14T13:20:30.307Z,-2.03
2022-12-14T13:23:15.238Z,-2.00
2022-12-14T13:26:23.359Z,-1.88
2022-12-14T13:29:19.473Z,-1.89
2022-12-14T13:32:16.647Z,-1.93
2022-12-14T13:35:05.207Z,-1.95
2022-12-14T13:37:40.709Z,-1.97
2022-12-14T13:40:23.946Z,-1.98
2022-12-14T13:42:55.361Z,-2.00
2022-12-14T13:45:30.857Z,-2.04
2022-12-14T13:47:59.478Z,-2.08
2022-12-14T13:50:49.817Z,-2.12
2022-12-14T13:53:50.445Z,-2.12
2022-12-14T13:56:32.686Z,-2.15
2022-12-14T13:59:04.950Z,-2.17
2022-12-14T14:01:48.222Z,-2.18
2022-12-14T14:04:22.859Z,-2.12
2022-12-14T14:06:53.282Z,-2.12
2022-12-14T14:09:30.304Z,-2.14
2022-12-14T14:12:02.401Z,-2.14
2022-12-14T14:14:36.681Z,-2.15
2022-12-14T14:17:17.213Z,-2.13
2022-12-14T14:19:49.710Z,-2.12
2022-12-14T14:22:23.323Z,-2.12
2022-12-14T14:25:00.667Z,-2.13
2022-12-14T14:27:30.293Z,-2.14
2022-12-14T14:29:58.462Z,-2.15
2022-12-14T14:32:41.245Z,-2.20
2022-12-14T14:35:25.579Z,-2.25
2022-12-14T14:38:00.180Z,-2.30
2022-12-14T14:40:51.505Z,-2.32
2022-12-14T14:43:22.638Z,-2.34
2022-12-14T14:45:55.013Z,-2.37
2022-12-14T14:48:35.951Z,-2.39
2022-12-14T14:51:27.510Z,-2.35
2022-12-14T14:58:05.727Z,-2.38
2022-12-14T15:00:52.264Z,-2.37
2022-12-14T15:03:28.428Z,-2.37
2022-12-14T15:05:58.364Z,-2.39
2022-12-14T15:08:39.404Z,-2.40
2022-12-14T15:11:19.394Z,-2.39
2022-12-14T15:14:06.980Z,-2.42
2022-12-14T15:16:45.261Z,-2.46
2022-12-14T15:19:36.182Z,-2.51
2022-12-14T15:22:13.203Z,-2.53
2022-12-14T15:24:44.829Z,-2.57
2022-12-14T15:27:24.978Z,-2.51
2022-12-14T15:29:57.152Z,-2.50
2022-12-14T15:32:25.622Z,-2.54
2022-12-14T15:34:57.315Z,-2.55
2022-12-14T15:37:54.722Z,-2.58
2022-12-14T15:40:30.491Z,-2.61
2022-12-14T15:43:01.460Z,-2.66
2022-12-14T15:45:32.930Z,-2.68
2022-12-14T15:48:34.524Z,-2.71
2022-12-14T15:51:11.928Z,-2.73
2022-12-14T15:53:50.148Z,-2.72
2022-12-14T15:56:30.103Z,-2.63
2022-12-14T15:59:01.248Z,-2.64
2022-12-14T16:01:39.768Z,-2.66
2022-12-14T16:04:13.317Z,-2.65
2022-12-14T16:06:49.425Z,-2.66
2022-12-14T16:09:26.829Z,-2.66
2022-12-14T16:11:57.282Z,-2.67
2022-12-14T16:14:31.993Z,-2.69
2022-12-14T16:17:00.918Z,-2.69
2022-12-14T16:19:57.458Z,-2.69
2022-12-14T16:22:27.716Z,-2.69
2022-12-14T16:25:07.741Z,-2.71
2022-12-14T16:27:42.374Z,-2.72
2022-12-14T16:30:34.099Z,-2.73
2022-12-14T16:33:11.328Z,-2.71
2022-12-14T16:35:39.672Z,-2.63
2022-12-14T16:38:13.109Z,-2.61
2022-12-14T16:40:52.799Z,-2.62
2022-12-14T16:43:34.182Z,-2.59
2022-12-14T16:46:05.437Z,-2.57
2022-12-14T16:48:36.785Z,-2.57
2022-12-14T16:51:50.955Z,-2.56
2022-12-14T16:54:25.124Z,-2.58
2022-12-14T16:56:58.359Z,-2.59
2022-12-14T16:59:42.763Z,-2.61
2022-12-14T17:02:45.996Z,-2.61
2022-12-14T17:05:18.579Z,-2.63
2022-12-14T17:07:46.639Z,-2.63
2022-12-14T17:10:23.331Z,-2.56
2022-12-14T17:12:53.741Z,-2.55
2022-12-14T17:15:23.565Z,-2.56
2022-12-14T17:17:54.488Z,-2.55
2022-12-14T17:20:25.939Z,-2.52
2022-12-14T17:22:58.813Z,-2.50
2022-12-14T17:25:28.126Z,-2.50
2022-12-14T17:27:56.817Z,-2.49
2022-12-14T17:30:25.087Z,-2.51
2022-12-14T17:32:54.962Z,-2.51
2022-12-14T17:35:30.127Z,-2.54
2022-12-14T17:37:59.691Z,-2.57
2022-12-14T17:40:28.130Z,-2.57
2022-12-14T17:42:58.151Z,-2.47
2022-12-14T17:45:29.198Z,-2.46
2022-12-14T17:47:57.765Z,-2.47
2022-12-14T17:50:26.442Z,-2.46
2022-12-14T17:52:54.723Z,-2.44
2022-12-14T17:55:28.808Z,-2.44
2022-12-14T17:57:58.125Z,-2.43
2022-12-14T18:00:47.936Z,-2.44
2022-12-14T18:03:17.494Z,-2.45
2022-12-14T18:05:49.583Z,-2.46
2022-12-14T18:08:22.371Z,-2.46
2022-12-14T18:10:54.868Z,-2.47
2022-12-14T18:13:23.305Z,-2.47
2022-12-14T18:15:52.938Z,-2.47
2022-12-14T18:18:25.814Z,-2.39
2022-12-14T18:20:55.472Z,-2.37
2022-12-14T18:23:24.051Z,-2.39
2022-12-14T18:25:55.111Z,-2.39
2022-12-14T18:28:23.898Z,-2.39
2022-12-14T18:30:59.691Z,-2.36
2022-12-14T18:33:28.797Z,-2.38
2022-12-14T18:35:57.620Z,-2.39
2022-12-14T18:38:26.906Z,-2.40
2022-12-14T18:40:58.711Z,-2.41
2022-12-14T18:43:29.125Z,-2.41
2022-12-14T18:45:58.640Z,-2.35
2022-12-14T18:48:26.750Z,-2.36
2022-12-14T18:50:55.873Z,-2.39
2022-12-14T18:53:25.749Z,-2.38
2022-12-14T18:55:54.498Z,-2.40
2022-12-14T18:58:25.254Z,-2.39
2022-12-14T19:00:56.602Z,-2.42
2022-12-14T19:03:25.976Z,-2.40
2022-12-14T19:06:34.369Z,-2.32
2022-12-14T19:08:51.816Z,-2.29
2022-12-14T19:11:46.172Z,-2.30
2022-12-14T19:14:14.364Z,-2.32
2022-12-14T19:16:43.056Z,-2.34
2022-12-14T19:19:11.501Z,-2.34
2022-12-14T19:21:39.601Z,-2.33
2022-12-14T19:24:08.841Z,-2.30
2022-12-14T19:26:39.460Z,-2.26
2022-12-14T19:29:07.859Z,-2.28
2022-12-14T19:31:36.071Z,-2.32
2022-12-14T19:34:04.325Z,-2.31
2022-12-14T19:36:32.399Z,-2.35
2022-12-14T19:39:00.597Z,-2.39
2022-12-14T19:41:28.884Z,-2.42
2022-12-14T19:43:58.155Z,-2.39
2022-12-14T19:46:26.975Z,-2.34
2022-12-14T19:48:55.813Z,-2.36
2022-12-14T19:51:24.216Z,-2.35
2022-12-14T19:53:54.942Z,-2.33
2022-12-14T19:56:23.258Z,-2.33
2022-12-14T19:58:51.430Z,-2.35
2022-12-14T20:01:19.442Z,-2.37
2022-12-14T20:03:49.267Z,-2.37
2022-12-14T20:06:17.557Z,-2.30
2022-12-14T20:08:49.628Z,-2.31
2022-12-14T20:11:18.074Z,-2.35
2022-12-14T20:13:46.218Z,-2.36
2022-12-14T20:16:16.668Z,-2.36
2022-12-14T20:18:45.463Z,-2.35
2022-12-14T20:21:21.645Z,-2.35
2022-12-14T20:23:50.549Z,-2.24
2022-12-14T20:26:21.669Z,-2.22
2022-12-14T20:28:52.428Z,-2.25
2022-12-14T20:31:22.497Z,-2.27
2022-12-14T20:33:51.104Z,-2.30
2022-12-14T20:36:19.637Z,-2.33
2022-12-14T20:38:49.186Z,-2.36
2022-12-14T20:41:17.577Z,-2.33
2022-12-14T20:43:45.958Z,-2.27
2022-12-14T20:46:33.157Z,-2.29
2022-12-14T20:49:07.531Z,-2.32
2022-12-14T20:51:37.683Z,-2.34
2022-12-14T20:54:08.421Z,-2.32
2022-12-14T20:56:36.710Z,-2.34
2022-12-14T20:59:05.814Z,-2.36
2022-12-14T21:01:37.206Z,-2.28
2022-12-14T21:04:06.480Z,-2.23
2022-12-14T21:06:39.208Z,-2.21
2022-12-14T21:09:15.372Z,-2.22
2022-12-14T21:12:10.872Z,-2.23
2022-12-14T21:14:42.778Z,-2.22
2022-12-14T21:17:11.227Z,-2.20
2022-12-14T21:19:39.540Z,-2.14
2022-12-14T21:22:12.712Z,-2.05
2022-12-14T21:27:31.159Z,-2.15
2022-12-14T21:30:00.614Z,-2.15
2022-12-14T21:32:28.998Z,-2.15
2022-12-14T21:34:57.148Z,-2.16
2022-12-14T21:37:25.235Z,-2.13
2022-12-14T21:39:54.925Z,-2.04
2022-12-14T21:42:24.168Z,-2.03
2022-12-14T21:44:53.584Z,-2.03
2022-12-14T21:47:25.552Z,-2.02
2022-12-14T21:49:53.736Z,-2.04
2022-12-14T21:52:24.708Z,-2.06
2022-12-14T21:54:54.163Z,-2.05
2022-12-14T21:57:43.071Z,-2.05
2022-12-14T22:00:18.500Z,-1.98
2022-12-14T22:02:46.612Z,-2.00
2022-12-14T22:05:15.085Z,-2.01
2022-12-14T22:07:43.167Z,-2.02
2022-12-14T22:10:11.382Z,-2.05
2022-12-14T22:12:39.477Z,-2.03
2022-12-14T22:15:08.491Z,-2.07
2022-12-14T22:17:36.641Z,-2.08
2022-12-14T22:20:05.236Z,-2.00
2022-12-14T22:22:33.689Z,-1.97
2022-12-14T22:25:02.067Z,-2.00
2022-12-14T22:27:30.091Z,-2.00
2022-12-14T22:29:58.197Z,-2.01
2022-12-14T22:32:26.278Z,-2.02
2022-12-14T22:34:54.317Z,-2.01
2022-12-14T22:37:22.341Z,-2.00
2022-12-14T22:39:50.467Z,-1.92
2022-12-14T22:42:18.582Z,-1.88
2022-12-14T22:44:49.127Z,-1.93
2022-12-14T22:47:17.271Z,-1.96
2022-12-14T22:49:45.286Z,-1.95
2022-12-14T22:52:13.302Z,-1.99
2022-12-14T22:54:41.467Z,-2.01
2022-12-14T22:57:17.655Z,-2.00
2022-12-14T22:59:56.595Z,-1.89
2022-12-14T23:02:25.313Z,-1.86
2022-12-14T23:04:53.776Z,-1.85
2022-12-14T23:07:22.225Z,-1.79
2022-12-14T23:10:09.154Z,-1.75
2022-12-14T23:12:56.464Z,-1.78
2022-12-14T23:15:43.171Z,-1.80
2022-12-14T23:18:29.956Z,-1.78
2022-12-14T23:21:16.700Z,-1.73
2022-12-14T23:24:04.371Z,-1.75
2022-12-14T23:26:52.231Z,-1.76
2022-12-14T23:29:38.818Z,-1.74
2022-12-14T23:32:25.562Z,-1.76
2022-12-14T23:35:12.318Z,-1.78
2022-12-14T23:37:59.069Z,-1.78
2022-12-14T23:40:45.794Z,-1.69
2022-12-14T23:43:35.458Z,-1.67
2022-12-14T23:46:24.220Z,-1.67
2022-12-14T23:49:15.671Z,-1.70
2022-12-14T23:52:02.814Z,-1.75
2022-12-14T23:54:49.751Z,-1.76
2022-12-14T23:57:36.681Z,-1.67
